sensor_id;sensor_type;location;lat;lon;timestamp;pressure;altitude;pressure_sealevel;temperature;humidity
19590;BME280;12231;42.782;23.388;2022-08-21T00:00:11;94998.44;;;23.32;98.01
19590;BME280;12231;42.782;23.388;2022-08-21T00:02:45;94996.81;;;23.31;97.34
19590;BME280;12231;42.782;23.388;2022-08-21T00:05:11;94995.88;;;23.39;96.76
19590;BME280;12231;42.782;23.388;2022-08-21T00:07:36;94993.09;;;23.40;97.30
19590;BME280;12231;42.782;23.388;2022-08-21T00:10:03;94987.66;;;23.42;96.94
19590;BME280;12231;42.782;23.388;2022-08-21T00:12:29;94985.03;;;23.42;96.76
19590;BME280;12231;42.782;23.388;2022-08-21T00:14:54;94974.31;;;23.43;96.73
19590;BME280;12231;42.782;23.388;2022-08-21T00:17:19;94975.28;;;23.42;96.29
19590;BME280;12231;42.782;23.388;2022-08-21T00:19:45;94983.28;;;23.34;96.61
19590;BME280;12231;42.782;23.388;2022-08-21T00:22:11;94967.59;;;23.41;96.03
19590;BME280;12231;42.782;23.388;2022-08-21T00:24:36;94971.31;;;23.46;96.05
19590;BME280;12231;42.782;23.388;2022-08-21T00:27:02;94966.63;;;23.27;96.56
19590;BME280;12231;42.782;23.388;2022-08-21T00:29:27;94979.13;;;23.25;96.50
19590;BME280;12231;42.782;23.388;2022-08-21T00:31:52;94971.31;;;23.17;96.73
19590;BME280;12231;42.782;23.388;2022-08-21T00:34:18;94974.22;;;23.22;97.00
19590;BME280;12231;42.782;23.388;2022-08-21T00:36:43;94970.03;;;23.13;97.02
19590;BME280;12231;42.782;23.388;2022-08-21T00:39:09;94970.41;;;23.25;96.53
19590;BME280;12231;42.782;23.388;2022-08-21T00:41:37;94964.88;;;23.20;96.71
19590;BME280;12231;42.782;23.388;2022-08-21T00:44:08;94966.34;;;23.08;97.29
19590;BME280;12231;42.782;23.388;2022-08-21T00:46:34;94971.94;;;23.19;96.80
19590;BME280;12231;42.782;23.388;2022-08-21T00:48:59;94971.78;;;23.21;96.95
19590;BME280;12231;42.782;23.388;2022-08-21T00:51:30;94978.03;;;23.34;96.16
19590;BME280;12231;42.782;23.388;2022-08-21T00:53:59;94975.84;;;23.23;96.83
19590;BME280;12231;42.782;23.388;2022-08-21T00:56:26;94973.97;;;23.32;96.39
19590;BME280;12231;42.782;23.388;2022-08-21T00:58:53;94982.03;;;23.30;96.23
19590;BME280;12231;42.782;23.388;2022-08-21T01:01:21;94987.75;;;23.34;95.68
19590;BME280;12231;42.782;23.388;2022-08-21T01:03:46;94981.75;;;23.25;95.92
19590;BME280;12231;42.782;23.388;2022-08-21T01:06:12;94972.38;;;23.23;96.22
19590;BME280;12231;42.782;23.388;2022-08-21T01:08:38;94978.66;;;23.36;95.71
19590;BME280;12231;42.782;23.388;2022-08-21T01:11:04;94978.03;;;23.34;95.77
19590;BME280;12231;42.782;23.388;2022-08-21T01:13:34;94976.22;;;23.20;96.37
19590;BME280;12231;42.782;23.388;2022-08-21T01:16:02;94974.56;;;23.19;96.44
19590;BME280;12231;42.782;23.388;2022-08-21T01:18:29;94967.06;;;23.31;95.71
19590;BME280;12231;42.782;23.388;2022-08-21T01:21:15;94972.22;;;23.39;95.25
19590;BME280;12231;42.782;23.388;2022-08-21T01:23:43;94960.25;;;23.36;95.37
19590;BME280;12231;42.782;23.388;2022-08-21T01:26:10;94960.44;;;23.35;95.73
19590;BME280;12231;42.782;23.388;2022-08-21T01:28:42;94955.75;;;23.30;95.42
19590;BME280;12231;42.782;23.388;2022-08-21T01:31:09;94956.97;;;23.34;95.33
19590;BME280;12231;42.782;23.388;2022-08-21T01:33:36;94951.09;;;23.32;95.55
19590;BME280;12231;42.782;23.388;2022-08-21T01:36:02;94953.19;;;23.37;95.43
19590;BME280;12231;42.782;23.388;2022-08-21T01:38:27;94956.97;;;23.34;95.59
19590;BME280;12231;42.782;23.388;2022-08-21T01:40:53;94958.81;;;23.34;95.06
19590;BME280;12231;42.782;23.388;2022-08-21T01:43:18;94966.34;;;23.37;94.98
19590;BME280;12231;42.782;23.388;2022-08-21T01:45:44;94967.25;;;23.29;95.71
19590;BME280;12231;42.782;23.388;2022-08-21T01:48:09;94970.06;;;23.28;95.36
19590;BME280;12231;42.782;23.388;2022-08-21T01:50:35;94970.31;;;23.33;95.31
19590;BME280;12231;42.782;23.388;2022-08-21T01:53:01;94968.06;;;23.30;95.15
19590;BME280;12231;42.782;23.388;2022-08-21T01:55:27;94965.81;;;23.27;94.91
19590;BME280;12231;42.782;23.388;2022-08-21T01:57:52;94964.13;;;23.26;95.33
19590;BME280;12231;42.782;23.388;2022-08-21T02:00:21;94969.06;;;23.29;95.05
19590;BME280;12231;42.782;23.388;2022-08-21T02:02:48;94963.34;;;23.25;95.25
19590;BME280;12231;42.782;23.388;2022-08-21T02:05:14;94968.06;;;23.30;94.81
19590;BME280;12231;42.782;23.388;2022-08-21T02:07:43;94974.03;;;23.38;94.44
19590;BME280;12231;42.782;23.388;2022-08-21T02:10:11;94959.06;;;23.39;93.97
19590;BME280;12231;42.782;23.388;2022-08-21T02:12:37;94969.66;;;23.45;93.28
19590;BME280;12231;42.782;23.388;2022-08-21T02:15:04;94958.78;;;23.48;93.44
19590;BME280;12231;42.782;23.388;2022-08-21T02:17:41;94963.06;;;23.35;93.79
19590;BME280;12231;42.782;23.388;2022-08-21T02:20:08;94962.97;;;23.43;93.39
19590;BME280;12231;42.782;23.388;2022-08-21T02:22:34;94970.31;;;23.33;93.56
19590;BME280;12231;42.782;23.388;2022-08-21T02:24:59;94978.47;;;22.65;96.04
19590;BME280;12231;42.782;23.388;2022-08-21T02:27:25;94987.34;;;22.27;98.54
19590;BME280;12231;42.782;23.388;2022-08-21T02:29:51;94974.69;;;22.08;100.00
19590;BME280;12231;42.782;23.388;2022-08-21T02:32:16;94976.34;;;21.86;100.00
19590;BME280;12231;42.782;23.388;2022-08-21T02:34:42;94969.94;;;21.58;100.00
19590;BME280;12231;42.782;23.388;2022-08-21T02:37:07;94982.63;;;21.77;100.00
19590;BME280;12231;42.782;23.388;2022-08-21T02:39:33;94972.72;;;21.56;100.00
19590;BME280;12231;42.782;23.388;2022-08-21T02:41:58;94979.75;;;21.64;100.00
19590;BME280;12231;42.782;23.388;2022-08-21T02:44:23;94985.81;;;21.64;100.00
19590;BME280;12231;42.782;23.388;2022-08-21T02:46:49;94987.75;;;21.40;100.00
19590;BME280;12231;42.782;23.388;2022-08-21T02:49:14;94989.66;;;21.15;100.00
19590;BME280;12231;42.782;23.388;2022-08-21T02:51:40;94977.50;;;21.22;100.00
19590;BME280;12231;42.782;23.388;2022-08-21T02:54:06;94980.88;;;21.61;100.00
19590;BME280;12231;42.782;23.388;2022-08-21T02:56:31;94993.44;;;21.82;100.00
19590;BME280;12231;42.782;23.388;2022-08-21T02:58:57;95002.75;;;21.85;100.00
19590;BME280;12231;42.782;23.388;2022-08-21T03:01:22;95002.88;;;21.91;100.00
19590;BME280;12231;42.782;23.388;2022-08-21T03:03:48;95003.34;;;22.17;100.00
19590;BME280;12231;42.782;23.388;2022-08-21T03:06:16;95004.91;;;22.26;100.00
19590;BME280;12231;42.782;23.388;2022-08-21T03:08:42;94999.34;;;22.44;99.73
19590;BME280;12231;42.782;23.388;2022-08-21T03:11:10;95009.84;;;22.44;99.09
19590;BME280;12231;42.782;23.388;2022-08-21T03:13:36;95001.44;;;22.48;98.94
19590;BME280;12231;42.782;23.388;2022-08-21T03:18:26;94999.41;;;21.91;100.00
19590;BME280;12231;42.782;23.388;2022-08-21T03:20:52;95000.25;;;21.60;100.00
19590;BME280;12231;42.782;23.388;2022-08-21T03:23:17;95000.13;;;21.23;100.00
19590;BME280;12231;42.782;23.388;2022-08-21T03:25:44;94998.59;;;21.37;100.00
19590;BME280;12231;42.782;23.388;2022-08-21T03:28:15;94996.25;;;20.95;100.00
19590;BME280;12231;42.782;23.388;2022-08-21T03:30:42;94989.31;;;20.48;100.00
19590;BME280;12231;42.782;23.388;2022-08-21T03:33:07;94992.59;;;19.85;100.00
19590;BME280;12231;42.782;23.388;2022-08-21T03:35:33;94987.69;;;19.90;100.00
19590;BME280;12231;42.782;23.388;2022-08-21T03:37:58;94991.88;;;19.51;100.00
19590;BME280;12231;42.782;23.388;2022-08-21T03:40:24;95003.81;;;19.62;100.00
19590;BME280;12231;42.782;23.388;2022-08-21T03:42:50;95007.94;;;19.64;100.00
19590;BME280;12231;42.782;23.388;2022-08-21T03:45:17;95001.22;;;19.62;100.00
19590;BME280;12231;42.782;23.388;2022-08-21T03:47:57;95001.91;;;20.04;100.00
19590;BME280;12231;42.782;23.388;2022-08-21T03:50:32;94998.16;;;19.98;100.00
19590;BME280;12231;42.782;23.388;2022-08-21T03:52:58;94988.31;;;19.92;100.00
19590;BME280;12231;42.782;23.388;2022-08-21T03:55:25;94990.13;;;19.84;100.00
19590;BME280;12231;42.782;23.388;2022-08-21T03:57:51;94979.69;;;20.08;100.00
19590;BME280;12231;42.782;23.388;2022-08-21T04:00:17;94989.28;;;19.67;100.00
19590;BME280;12231;42.782;23.388;2022-08-21T04:02:45;94989.31;;;19.83;100.00
19590;BME280;12231;42.782;23.388;2022-08-21T04:05:14;94986.88;;;19.98;100.00
19590;BME280;12231;42.782;23.388;2022-08-21T04:07:39;95005.00;;;19.75;100.00
19590;BME280;12231;42.782;23.388;2022-08-21T04:10:06;94994.09;;;20.20;100.00
19590;BME280;12231;42.782;23.388;2022-08-21T04:12:32;94999.16;;;20.37;100.00
19590;BME280;12231;42.782;23.388;2022-08-21T04:14:57;95011.25;;;20.47;100.00
19590;BME280;12231;42.782;23.388;2022-08-21T04:17:23;95010.13;;;20.49;100.00
19590;BME280;12231;42.782;23.388;2022-08-21T04:19:49;95010.09;;;20.65;100.00
19590;BME280;12231;42.782;23.388;2022-08-21T04:22:15;95000.88;;;20.77;100.00
19590;BME280;12231;42.782;23.388;2022-08-21T04:24:40;94997.31;;;20.70;100.00
19590;BME280;12231;42.782;23.388;2022-08-21T04:27:06;94997.50;;;20.36;100.00
19590;BME280;12231;42.782;23.388;2022-08-21T04:29:31;94994.41;;;20.57;100.00
19590;BME280;12231;42.782;23.388;2022-08-21T04:31:57;94995.69;;;20.53;100.00
19590;BME280;12231;42.782;23.388;2022-08-21T04:34:22;94997.50;;;20.53;100.00
19590;BME280;12231;42.782;23.388;2022-08-21T04:36:47;95002.75;;;20.36;100.00
19590;BME280;12231;42.782;23.388;2022-08-21T04:39:13;95003.25;;;20.32;100.00
19590;BME280;12231;42.782;23.388;2022-08-21T04:41:38;94997.34;;;20.38;100.00
19590;BME280;12231;42.782;23.388;2022-08-21T04:44:04;94996.06;;;20.26;100.00
19590;BME280;12231;42.782;23.388;2022-08-21T04:46:30;94987.53;;;20.40;100.00
19590;BME280;12231;42.782;23.388;2022-08-21T04:48:55;94993.09;;;20.45;100.00
19590;BME280;12231;42.782;23.388;2022-08-21T04:54:00;95001.84;;;20.92;100.00
19590;BME280;12231;42.782;23.388;2022-08-21T04:56:30;95000.38;;;20.82;100.00
19590;BME280;12231;42.782;23.388;2022-08-21T04:58:59;95004.41;;;21.16;100.00
19590;BME280;12231;42.782;23.388;2022-08-21T05:01:27;95008.81;;;21.54;100.00
19590;BME280;12231;42.782;23.388;2022-08-21T05:03:56;95007.53;;;21.81;100.00
19590;BME280;12231;42.782;23.388;2022-08-21T05:06:23;95006.72;;;22.26;100.00
19590;BME280;12231;42.782;23.388;2022-08-21T05:08:51;95008.22;;;22.65;100.00
19590;BME280;12231;42.782;23.388;2022-08-21T05:11:17;95006.19;;;23.34;100.00
19590;BME280;12231;42.782;23.388;2022-08-21T05:13:43;95006.47;;;24.10;98.81
19590;BME280;12231;42.782;23.388;2022-08-21T05:16:08;95001.03;;;24.88;97.96
19590;BME280;12231;42.782;23.388;2022-08-21T05:18:34;95005.44;;;25.42;93.62
19590;BME280;12231;42.782;23.388;2022-08-21T05:21:00;95020.75;;;26.20;89.86
19590;BME280;12231;42.782;23.388;2022-08-21T05:23:25;95015.50;;;26.98;86.98
19590;BME280;12231;42.782;23.388;2022-08-21T05:25:52;95015.97;;;27.66;83.09
19590;BME280;12231;42.782;23.388;2022-08-21T05:28:17;95012.22;;;28.62;78.34
19590;BME280;12231;42.782;23.388;2022-08-21T05:30:43;94993.84;;;29.64;73.95
19590;BME280;12231;42.782;23.388;2022-08-21T05:33:08;94991.69;;;30.38;69.25
19590;BME280;12231;42.782;23.388;2022-08-21T05:35:35;94982.78;;;30.44;66.12
19590;BME280;12231;42.782;23.388;2022-08-21T05:38:03;94982.84;;;30.26;67.60
19590;BME280;12231;42.782;23.388;2022-08-21T05:40:29;94977.22;;;29.86;68.26
19590;BME280;12231;42.782;23.388;2022-08-21T05:42:55;94979.63;;;29.58;69.16
19590;BME280;12231;42.782;23.388;2022-08-21T05:45:23;94976.22;;;29.33;69.69
19590;BME280;12231;42.782;23.388;2022-08-21T05:47:48;94978.13;;;29.44;70.37
19590;BME280;12231;42.782;23.388;2022-08-21T05:50:14;94991.47;;;29.19;70.00
19590;BME280;12231;42.782;23.388;2022-08-21T05:52:39;94978.16;;;29.08;69.86
19590;BME280;12231;42.782;23.388;2022-08-21T05:55:05;94974.06;;;28.56;72.33
19590;BME280;12231;42.782;23.388;2022-08-21T05:57:30;94977.91;;;29.27;72.39
19590;BME280;12231;42.782;23.388;2022-08-21T05:59:56;94978.34;;;29.97;70.99
19590;BME280;12231;42.782;23.388;2022-08-21T06:02:21;94983.28;;;30.75;66.37
19590;BME280;12231;42.782;23.388;2022-08-21T06:04:47;94973.25;;;30.89;64.23
19590;BME280;12231;42.782;23.388;2022-08-21T06:07:17;94980.06;;;31.08;63.37
19590;BME280;12231;42.782;23.388;2022-08-21T06:09:42;94975.91;;;30.77;64.29
19590;BME280;12231;42.782;23.388;2022-08-21T06:12:10;94972.97;;;30.44;64.60
19590;BME280;12231;42.782;23.388;2022-08-21T06:14:36;94973.84;;;30.09;67.47
19590;BME280;12231;42.782;23.388;2022-08-21T06:17:06;94975.09;;;30.24;67.08
19590;BME280;12231;42.782;23.388;2022-08-21T06:19:32;94980.28;;;29.72;68.47
19590;BME280;12231;42.782;23.388;2022-08-21T06:21:58;94982.22;;;29.46;69.34
19590;BME280;12231;42.782;23.388;2022-08-21T06:24:24;94974.34;;;29.88;68.98
19590;BME280;12231;42.782;23.388;2022-08-21T06:26:50;94988.03;;;30.62;66.40
19590;BME280;12231;42.782;23.388;2022-08-21T06:29:16;94981.59;;;29.99;67.11
19590;BME280;12231;42.782;23.388;2022-08-21T06:31:43;94978.78;;;29.94;67.07
19590;BME280;12231;42.782;23.388;2022-08-21T06:34:09;94989.84;;;30.20;66.77
19590;BME280;12231;42.782;23.388;2022-08-21T06:36:35;94983.34;;;31.33;64.78
19590;BME280;12231;42.782;23.388;2022-08-21T06:39:00;94977.59;;;32.60;59.95
19590;BME280;12231;42.782;23.388;2022-08-21T06:41:26;94983.88;;;33.97;56.56
19590;BME280;12231;42.782;23.388;2022-08-21T06:43:53;94977.16;;;35.06;52.32
19590;BME280;12231;42.782;23.388;2022-08-21T06:46:19;94978.75;;;35.43;50.67
19590;BME280;12231;42.782;23.388;2022-08-21T06:48:44;94965.69;;;36.19;49.25
19590;BME280;12231;42.782;23.388;2022-08-21T06:51:10;94978.66;;;35.80;47.49
19590;BME280;12231;42.782;23.388;2022-08-21T06:53:36;94970.22;;;33.55;53.90
19590;BME280;12231;42.782;23.388;2022-08-21T06:56:02;94969.97;;;35.58;50.09
19590;BME280;12231;42.782;23.388;2022-08-21T06:58:27;94974.59;;;35.72;47.47
19590;BME280;12231;42.782;23.388;2022-08-21T07:00:54;94971.94;;;36.69;45.71
19590;BME280;12231;42.782;23.388;2022-08-21T07:03:25;94973.69;;;36.04;46.43
19590;BME280;12231;42.782;23.388;2022-08-21T07:05:52;94976.41;;;36.14;46.62
19590;BME280;12231;42.782;23.388;2022-08-21T07:08:18;94973.81;;;37.14;44.42
19590;BME280;12231;42.782;23.388;2022-08-21T07:10:44;94979.09;;;36.19;45.73
19590;BME280;12231;42.782;23.388;2022-08-21T07:13:09;94984.81;;;34.60;48.99
19590;BME280;12231;42.782;23.388;2022-08-21T07:15:35;94990.44;;;35.74;48.13
19590;BME280;12231;42.782;23.388;2022-08-21T07:18:01;94997.59;;;34.53;50.14
19590;BME280;12231;42.782;23.388;2022-08-21T07:20:28;94989.63;;;35.27;49.74
19590;BME280;12231;42.782;23.388;2022-08-21T07:22:55;94975.69;;;37.49;45.11
19590;BME280;12231;42.782;23.388;2022-08-21T07:25:21;94975.47;;;38.63;41.62
19590;BME280;12231;42.782;23.388;2022-08-21T07:27:46;94975.97;;;37.12;43.72
19590;BME280;12231;42.782;23.388;2022-08-21T07:30:12;94976.78;;;34.12;49.28
19590;BME280;12231;42.782;23.388;2022-08-21T07:32:37;94977.13;;;33.34;52.51
19590;BME280;12231;42.782;23.388;2022-08-21T07:35:03;94964.34;;;36.26;46.21
19590;BME280;12231;42.782;23.388;2022-08-21T07:37:29;94973.47;;;37.56;43.60
19590;BME280;12231;42.782;23.388;2022-08-21T07:39:54;94966.94;;;38.40;41.59
19590;BME280;12231;42.782;23.388;2022-08-21T07:42:20;94958.91;;;38.35;40.20
19590;BME280;12231;42.782;23.388;2022-08-21T07:44:45;94960.69;;;39.75;39.20
19590;BME280;12231;42.782;23.388;2022-08-21T07:47:10;94950.41;;;41.39;36.24
19590;BME280;12231;42.782;23.388;2022-08-21T07:49:36;94957.63;;;41.43;35.36
19590;BME280;12231;42.782;23.388;2022-08-21T07:52:02;94943.81;;;41.72;33.99
19590;BME280;12231;42.782;23.388;2022-08-21T07:54:27;94948.69;;;42.24;33.49
19590;BME280;12231;42.782;23.388;2022-08-21T07:56:52;94944.19;;;41.38;33.41
19590;BME280;12231;42.782;23.388;2022-08-21T07:59:18;94937.88;;;41.43;33.25
19590;BME280;12231;42.782;23.388;2022-08-21T08:01:43;94929.31;;;42.31;31.37
19590;BME280;12231;42.782;23.388;2022-08-21T08:04:09;94936.47;;;39.64;36.44
19590;BME280;12231;42.782;23.388;2022-08-21T08:06:34;94938.88;;;40.50;34.63
19590;BME280;12231;42.782;23.388;2022-08-21T08:09:00;94936.84;;;41.12;33.94
19590;BME280;12231;42.782;23.388;2022-08-21T08:11:28;94941.75;;;41.96;31.82
19590;BME280;12231;42.782;23.388;2022-08-21T08:13:53;94937.88;;;41.83;32.68
19590;BME280;12231;42.782;23.388;2022-08-21T08:16:19;94936.72;;;42.39;31.29
19590;BME280;12231;42.782;23.388;2022-08-21T08:18:44;94931.91;;;40.81;33.22
19590;BME280;12231;42.782;23.388;2022-08-21T08:21:11;94914.78;;;42.13;31.94
19590;BME280;12231;42.782;23.388;2022-08-21T08:23:36;94916.06;;;39.77;36.02
19590;BME280;12231;42.782;23.388;2022-08-21T08:26:02;94927.03;;;37.25;39.67
19590;BME280;12231;42.782;23.388;2022-08-21T08:28:28;94930.25;;;39.45;37.48
19590;BME280;12231;42.782;23.388;2022-08-21T08:30:54;94928.50;;;38.69;35.43
19590;BME280;12231;42.782;23.388;2022-08-21T08:33:21;94919.34;;;38.65;36.60
19590;BME280;12231;42.782;23.388;2022-08-21T08:35:48;94926.09;;;38.96;36.47
19590;BME280;12231;42.782;23.388;2022-08-21T08:38:15;94924.91;;;35.55;43.65
19590;BME280;12231;42.782;23.388;2022-08-21T08:40:58;94936.63;;;34.66;45.39
19590;BME280;12231;42.782;23.388;2022-08-21T08:43:27;94930.75;;;32.25;51.14
19590;BME280;12231;42.782;23.388;2022-08-21T08:45:54;94932.38;;;31.69;53.63
19590;BME280;12231;42.782;23.388;2022-08-21T08:48:50;94932.38;;;31.07;53.77
19590;BME280;12231;42.782;23.388;2022-08-21T08:51:24;94932.38;;;31.07;55.09
19590;BME280;12231;42.782;23.388;2022-08-21T08:53:55;94943.56;;;30.74;57.84
19590;BME280;12231;42.782;23.388;2022-08-21T08:56:27;94930.59;;;31.86;53.13
19590;BME280;12231;42.782;23.388;2022-08-21T08:58:55;94942.00;;;30.85;56.11
19590;BME280;12231;42.782;23.388;2022-08-21T09:01:22;94931.53;;;31.29;54.16
19590;BME280;12231;42.782;23.388;2022-08-21T09:03:49;94930.09;;;28.91;61.49
19590;BME280;12231;42.782;23.388;2022-08-21T09:07:01;94930.56;;;29.90;58.72
19590;BME280;12231;42.782;23.388;2022-08-21T09:12:36;94931.47;;;30.90;56.90
19590;BME280;12231;42.782;23.388;2022-08-21T09:15:15;94924.56;;;29.65;59.37
19590;BME280;12231;42.782;23.388;2022-08-21T09:20:54;94913.38;;;28.66;63.00
19590;BME280;12231;42.782;23.388;2022-08-21T09:28:32;94903.34;;;29.77;60.51
19590;BME280;12231;42.782;23.388;2022-08-21T09:30:58;94897.59;;;29.32;59.03
19590;BME280;12231;42.782;23.388;2022-08-21T09:33:28;94901.03;;;29.14;62.23
19590;BME280;12231;42.782;23.388;2022-08-21T09:35:55;94892.56;;;29.24;60.16
19590;BME280;12231;42.782;23.388;2022-08-21T09:41:00;94896.22;;;29.05;60.91
19590;BME280;12231;42.782;23.388;2022-08-21T09:43:26;94890.25;;;29.45;60.40
19590;BME280;12231;42.782;23.388;2022-08-21T09:46:23;94887.94;;;29.49;59.82
19590;BME280;12231;42.782;23.388;2022-08-21T09:48:51;94898.63;;;29.61;59.61
19590;BME280;12231;42.782;23.388;2022-08-21T09:51:20;94897.50;;;29.02;59.96
19590;BME280;12231;42.782;23.388;2022-08-21T09:53:54;94899.41;;;29.31;59.89
19590;BME280;12231;42.782;23.388;2022-08-21T09:59:19;94888.84;;;28.71;61.83
19590;BME280;12231;42.782;23.388;2022-08-21T10:01:49;94890.56;;;29.01;61.68
19590;BME280;12231;42.782;23.388;2022-08-21T10:04:20;94884.97;;;28.91;61.92
19590;BME280;12231;42.782;23.388;2022-08-21T10:06:46;94881.59;;;28.60;62.33
19590;BME280;12231;42.782;23.388;2022-08-21T10:09:15;94891.13;;;28.43;64.65
19590;BME280;12231;42.782;23.388;2022-08-21T10:11:54;94884.69;;;28.07;64.78
19590;BME280;12231;42.782;23.388;2022-08-21T10:14:52;94876.50;;;28.09;67.17
19590;BME280;12231;42.782;23.388;2022-08-21T10:20:08;94872.22;;;27.46;67.61
19590;BME280;12231;42.782;23.388;2022-08-21T10:25:18;94863.44;;;27.01;68.03
19590;BME280;12231;42.782;23.388;2022-08-21T10:30:39;94865.41;;;26.42;70.74
19590;BME280;12231;42.782;23.388;2022-08-21T10:33:16;94865.44;;;26.03;71.49
19590;BME280;12231;42.782;23.388;2022-08-21T10:35:50;94866.25;;;26.23;71.81
19590;BME280;12231;42.782;23.388;2022-08-21T10:47:35;94851.97;;;25.72;74.94
19590;BME280;12231;42.782;23.388;2022-08-21T10:55:43;94839.47;;;26.89;69.04
19590;BME280;12231;42.782;23.388;2022-08-21T10:58:10;94839.31;;;26.78;68.58
19590;BME280;12231;42.782;23.388;2022-08-21T11:00:43;94834.50;;;26.49;71.26
19590;BME280;12231;42.782;23.388;2022-08-21T11:03:15;94835.75;;;27.04;69.80
19590;BME280;12231;42.782;23.388;2022-08-21T11:05:50;94826.38;;;27.08;67.59
19590;BME280;12231;42.782;23.388;2022-08-21T11:10:53;94823.88;;;27.81;68.51
19590;BME280;12231;42.782;23.388;2022-08-21T11:13:43;94815.47;;;27.66;65.23
19590;BME280;12231;42.782;23.388;2022-08-21T11:18:50;94813.59;;;27.67;65.30
19590;BME280;12231;42.782;23.388;2022-08-21T11:21:38;94803.66;;;27.93;63.92
19590;BME280;12231;42.782;23.388;2022-08-21T11:26:48;94802.13;;;27.79;67.52
19590;BME280;12231;42.782;23.388;2022-08-21T11:29:27;94796.09;;;27.97;64.96
19590;BME280;12231;42.782;23.388;2022-08-21T11:40:04;94785.25;;;28.23;62.36
19590;BME280;12231;42.782;23.388;2022-08-21T11:42:52;94792.69;;;28.33;61.76
19590;BME280;12231;42.782;23.388;2022-08-21T11:45:36;94787.75;;;27.93;61.71
19590;BME280;12231;42.782;23.388;2022-08-21T11:48:33;94789.00;;;27.84;64.37
19590;BME280;12231;42.782;23.388;2022-08-21T11:51:17;94791.19;;;27.69;64.02
19590;BME280;12231;42.782;23.388;2022-08-21T11:53:52;94790.59;;;27.67;64.06
19590;BME280;12231;42.782;23.388;2022-08-21T11:56:28;94787.22;;;27.54;63.19
19590;BME280;12231;42.782;23.388;2022-08-21T11:59:14;94788.50;;;27.45;63.51
19590;BME280;12231;42.782;23.388;2022-08-21T12:01:46;94785.09;;;27.38;65.55
19590;BME280;12231;42.782;23.388;2022-08-21T12:04:31;94779.09;;;27.49;63.80
19590;BME280;12231;42.782;23.388;2022-08-21T12:07:17;94777.53;;;27.41;65.14
19590;BME280;12231;42.782;23.388;2022-08-21T12:09:54;94783.53;;;27.30;66.51
19590;BME280;12231;42.782;23.388;2022-08-21T12:12:27;94780.44;;;27.27;65.67
19590;BME280;12231;42.782;23.388;2022-08-21T12:17:39;94773.53;;;26.88;67.80
19590;BME280;12231;42.782;23.388;2022-08-21T12:23:02;94764.00;;;26.80;68.60
19590;BME280;12231;42.782;23.388;2022-08-21T12:25:37;94761.72;;;26.90;67.84
19590;BME280;12231;42.782;23.388;2022-08-21T12:28:08;94761.50;;;26.92;67.91
19590;BME280;12231;42.782;23.388;2022-08-21T12:30:36;94776.28;;;26.62;69.44
19590;BME280;12231;42.782;23.388;2022-08-21T12:35:49;94786.84;;;26.68;71.74
19590;BME280;12231;42.782;23.388;2022-08-21T12:38:27;94785.63;;;26.58;69.63
19590;BME280;12231;42.782;23.388;2022-08-21T12:41:20;94777.53;;;26.40;70.14
19590;BME280;12231;42.782;23.388;2022-08-21T12:43:52;94781.84;;;26.41;69.42
19590;BME280;12231;42.782;23.388;2022-08-21T12:49:16;94780.06;;;26.02;71.44
19590;BME280;12231;42.782;23.388;2022-08-21T12:51:55;94779.47;;;25.87;72.62
19590;BME280;12231;42.782;23.388;2022-08-21T12:54:27;94773.53;;;25.98;70.57
19590;BME280;12231;42.782;23.388;2022-08-21T12:56:59;94780.88;;;25.77;72.12
19590;BME280;12231;42.782;23.388;2022-08-21T12:59:25;94771.53;;;25.74;72.80
19590;BME280;12231;42.782;23.388;2022-08-21T13:01:51;94776.00;;;25.93;71.51
19590;BME280;12231;42.782;23.388;2022-08-21T13:04:38;94777.03;;;26.12;70.01
19590;BME280;12231;42.782;23.388;2022-08-21T13:07:11;94782.53;;;26.10;71.25
19590;BME280;12231;42.782;23.388;2022-08-21T13:09:47;94784.13;;;26.11;74.18
19590;BME280;12231;42.782;23.388;2022-08-21T13:12:16;94775.59;;;26.03;72.32
19590;BME280;12231;42.782;23.388;2022-08-21T13:14:44;94775.19;;;26.06;73.26
19590;BME280;12231;42.782;23.388;2022-08-21T13:17:12;94772.94;;;26.16;73.32
19590;BME280;12231;42.782;23.388;2022-08-21T13:19:39;94778.22;;;25.83;72.17
19590;BME280;12231;42.782;23.388;2022-08-21T13:22:12;94776.41;;;25.77;74.39
19590;BME280;12231;42.782;23.388;2022-08-21T13:24:38;94777.63;;;25.61;73.69
19590;BME280;12231;42.782;23.388;2022-08-21T13:27:16;94770.31;;;25.70;75.34
19590;BME280;12231;42.782;23.388;2022-08-21T13:29:42;94761.59;;;25.56;76.28
19590;BME280;12231;42.782;23.388;2022-08-21T13:32:19;94761.59;;;25.63;74.21
19590;BME280;12231;42.782;23.388;2022-08-21T13:34:46;94755.09;;;25.52;74.32
19590;BME280;12231;42.782;23.388;2022-08-21T13:37:13;94749.81;;;25.39;75.73
19590;BME280;12231;42.782;23.388;2022-08-21T13:39:39;94746.75;;;25.36;75.46
19590;BME280;12231;42.782;23.388;2022-08-21T13:42:11;94749.94;;;25.18;76.98
19590;BME280;12231;42.782;23.388;2022-08-21T13:44:44;94739.84;;;25.35;76.82
19590;BME280;12231;42.782;23.388;2022-08-21T13:47:12;94736.81;;;25.38;76.41
19590;BME280;12231;42.782;23.388;2022-08-21T13:49:47;94745.09;;;25.15;77.95
19590;BME280;12231;42.782;23.388;2022-08-21T13:52:17;94734.78;;;25.59;76.55
19590;BME280;12231;42.782;23.388;2022-08-21T13:54:43;94735.78;;;25.78;75.10
19590;BME280;12231;42.782;23.388;2022-08-21T13:57:26;94740.63;;;25.81;74.85
19590;BME280;12231;42.782;23.388;2022-08-21T13:59:51;94738.59;;;25.83;75.01
19590;BME280;12231;42.782;23.388;2022-08-21T14:02:22;94726.63;;;25.81;74.45
19590;BME280;12231;42.782;23.388;2022-08-21T14:05:00;94740.66;;;25.68;76.79
19590;BME280;12231;42.782;23.388;2022-08-21T14:07:33;94734.97;;;25.78;77.65